createdAt,value
2018-10-17T00:00:09.174Z,14.90
2018-10-17T00:02:37.691Z,15.37
2018-10-17T00:05:07.049Z,16.17
2018-10-17T00:07:35.563Z,17.30
2018-10-17T00:10:04.406Z,15.53
2018-10-17T00:12:32.886Z,16.13
2018-10-17T00:15:01.451Z,16.27
2018-10-17T00:17:30.106Z,17.23
2018-10-17T00:19:58.587Z,16.87
2018-10-17T00:22:27.191Z,16.67
2018-10-17T00:24:55.784Z,16.90
2018-10-17T00:27:24.352Z,16.70
2018-10-17T00:29:52.912Z,16.73
2018-10-17T00:32:21.404Z,17.30
2018-10-17T00:34:49.989Z,16.33
2018-10-17T00:37:18.466Z,18.47
2018-10-17T00:39:47.065Z,18.23
2018-10-17T00:42:15.576Z,18.43
2018-10-17T00:44:44.129Z,17.43
2018-10-17T00:47:12.671Z,16.33
2018-10-17T00:49:41.197Z,16.83
2018-10-17T00:52:09.963Z,19.00
2018-10-17T00:54:38.533Z,17.57
2018-10-17T00:57:07.062Z,17.20
2018-10-17T00:59:35.647Z,19.40
2018-10-17T01:02:04.227Z,19.97
2018-10-17T01:04:32.794Z,18.00
2018-10-17T01:07:01.364Z,19.23
2018-10-17T01:09:29.975Z,18.37
2018-10-17T01:11:58.550Z,17.83
2018-10-17T01:14:27.540Z,19.37
2018-10-17T01:16:56.059Z,18.90
2018-10-17T01:19:24.605Z,20.47
2018-10-17T01:21:53.156Z,20.50
2018-10-17T01:24:21.697Z,19.83
2018-10-17T01:26:50.183Z,19.10
2018-10-17T01:29:18.727Z,20.90
2018-10-17T01:31:47.264Z,20.57
2018-10-17T01:34:15.771Z,22.00
2018-10-17T01:36:44.277Z,21.60
2018-10-17T01:39:12.804Z,21.10
2018-10-17T01:41:41.376Z,20.07
2018-10-17T01:44:09.893Z,20.97
2018-10-17T01:46:38.381Z,21.70
2018-10-17T01:49:07.027Z,21.33
2018-10-17T01:51:35.499Z,20.80
2018-10-17T01:54:04.070Z,22.30
2018-10-17T01:56:32.675Z,20.50
2018-10-17T01:59:01.872Z,20.03
2018-10-17T02:01:30.413Z,20.60
2018-10-17T02:03:58.904Z,22.73
2018-10-17T02:06:27.463Z,20.57
2018-10-17T02:08:55.984Z,19.97
2018-10-17T02:11:24.562Z,21.23
2018-10-17T02:13:53.063Z,19.60
2018-10-17T02:16:21.590Z,22.10
2018-10-17T02:18:50.068Z,21.03
2018-10-17T02:21:18.676Z,20.80
2018-10-17T02:23:47.275Z,20.63
2018-10-17T02:26:15.852Z,21.23
2018-10-17T02:28:44.510Z,19.00
2018-10-17T02:31:13.068Z,19.33
2018-10-17T02:33:41.527Z,20.50
2018-10-17T02:36:10.062Z,21.10
2018-10-17T02:38:38.582Z,19.00
2018-10-17T02:41:07.156Z,20.33
2018-10-17T02:43:35.590Z,19.30
2018-10-17T02:46:04.090Z,19.50
2018-10-17T02:48:32.593Z,20.50
2018-10-17T02:51:01.109Z,20.13
2018-10-17T02:53:29.587Z,21.23
2018-10-17T02:55:58.151Z,20.47
2018-10-17T02:58:26.911Z,19.60
2018-10-17T03:00:55.533Z,18.33
2018-10-17T03:03:23.985Z,20.03
2018-10-17T03:05:52.511Z,20.03
2018-10-17T03:08:21.021Z,20.50
2018-10-17T03:10:49.690Z,20.00
2018-10-17T03:13:18.369Z,19.60
2018-10-17T03:15:46.800Z,20.07
2018-10-17T03:18:15.294Z,19.70
2018-10-17T03:20:43.883Z,20.30
2018-10-17T03:23:12.536Z,20.77
2018-10-17T03:25:41.092Z,19.20
2018-10-17T03:28:09.704Z,19.90
2018-10-17T03:30:38.278Z,18.70
2018-10-17T03:33:07.544Z,20.23
2018-10-17T03:35:37.308Z,19.43
2018-10-17T03:38:06.103Z,21.73
2018-10-17T03:40:34.658Z,19.60
2018-10-17T03:43:03.555Z,21.60
2018-10-17T03:45:32.120Z,20.57
2018-10-17T03:48:01.180Z,23.00
2018-10-17T03:50:29.901Z,21.20
2018-10-17T03:52:58.521Z,22.20
2018-10-17T03:55:27.179Z,22.40
2018-10-17T03:57:55.782Z,24.37
2018-10-17T04:00:24.399Z,24.27
2018-10-17T04:02:53.020Z,24.17
2018-10-17T04:05:21.507Z,24.43
2018-10-17T04:07:50.036Z,24.30
2018-10-17T04:10:18.635Z,25.00
2018-10-17T04:12:47.171Z,24.90
2018-10-17T04:15:15.667Z,24.40
2018-10-17T04:17:44.323Z,26.13
2018-10-17T04:20:12.806Z,25.10
2018-10-17T04:22:46.164Z,27.30
2018-10-17T04:25:15.687Z,27.07
2018-10-17T04:27:51.182Z,27.03
2018-10-17T04:30:19.804Z,27.80
2018-10-17T04:32:48.349Z,28.23
2018-10-17T04:35:16.917Z,29.20
2018-10-17T04:37:45.498Z,28.57
2018-10-17T04:40:14.031Z,29.67
2018-10-17T04:42:43.334Z,26.93
2018-10-17T04:45:12.055Z,30.00
2018-10-17T04:47:40.693Z,28.87
2018-10-17T04:50:10.355Z,30.37
2018-10-17T04:52:39.231Z,31.50
2018-10-17T04:55:08.528Z,28.90
2018-10-17T04:57:37.086Z,30.17
2018-10-17T05:00:07.753Z,29.10
2018-10-17T05:02:36.459Z,29.03
2018-10-17T05:05:05.308Z,30.40
2018-10-17T05:07:33.958Z,28.97
2018-10-17T05:10:02.623Z,30.13
2018-10-17T05:12:31.428Z,30.77
2018-10-17T05:15:00.130Z,30.43
2018-10-17T05:17:28.794Z,29.73
2018-10-17T05:19:57.329Z,30.83
2018-10-17T05:22:25.844Z,28.87
2018-10-17T05:24:54.406Z,29.40
2018-10-17T05:27:22.930Z,29.90
2018-10-17T05:29:51.798Z,28.50
2018-10-17T05:32:20.258Z,31.00
2018-10-17T05:34:48.760Z,30.17
2018-10-17T05:37:17.418Z,29.37
2018-10-17T05:39:45.890Z,29.37
2018-10-17T05:42:14.515Z,30.17
2018-10-17T05:44:43.099Z,28.50
2018-10-17T05:47:11.785Z,29.30
2018-10-17T05:49:40.412Z,29.20
2018-10-17T05:52:09.499Z,31.57
2018-10-17T05:54:38.011Z,30.30
2018-10-17T05:57:07.185Z,29.27
2018-10-17T05:59:35.740Z,31.20
2018-10-17T06:02:08.522Z,30.27
2018-10-17T06:04:37.095Z,29.63
2018-10-17T06:07:05.972Z,31.27
2018-10-17T06:09:34.514Z,30.30
2018-10-17T06:12:03.042Z,29.73
2018-10-17T06:14:31.714Z,29.03
2018-10-17T06:17:00.378Z,29.20
2018-10-17T06:19:28.867Z,31.47
2018-10-17T06:21:57.403Z,31.07
2018-10-17T06:24:25.921Z,30.47
2018-10-17T06:26:54.536Z,29.37
2018-10-17T06:29:23.163Z,30.27
2018-10-17T06:31:51.789Z,32.10
2018-10-17T06:34:20.561Z,31.80
2018-10-17T06:36:49.670Z,29.10
2018-10-17T06:39:18.247Z,31.47
2018-10-17T06:41:47.602Z,31.13
2018-10-17T06:44:16.163Z,30.47
2018-10-17T06:46:44.661Z,31.50
2018-10-17T06:49:13.349Z,30.77
2018-10-17T06:51:41.890Z,31.00
2018-10-17T06:54:10.481Z,32.00
2018-10-17T06:56:39.083Z,30.70
2018-10-17T06:59:07.729Z,31.00
2018-10-17T07:01:36.902Z,30.50
2018-10-17T07:04:05.635Z,28.80
2018-10-17T07:06:34.293Z,29.47
2018-10-17T07:09:04.164Z,31.60
2018-10-17T07:11:32.709Z,32.30
2018-10-17T07:14:01.333Z,32.47
2018-10-17T07:16:29.859Z,33.13
2018-10-17T07:18:58.406Z,33.93
2018-10-17T07:21:26.899Z,31.83
2018-10-17T07:23:55.493Z,31.83
2018-10-17T07:26:24.053Z,31.07
2018-10-17T07:28:53.000Z,32.30
2018-10-17T07:31:21.666Z,32.60
2018-10-17T07:33:50.187Z,33.13
2018-10-17T07:36:19.495Z,32.23
2018-10-17T07:38:48.066Z,32.53
2018-10-17T07:41:16.662Z,32.90
2018-10-17T07:43:45.855Z,32.30
2018-10-17T07:46:14.398Z,32.80
2018-10-17T07:48:42.999Z,32.43
2018-10-17T07:51:11.565Z,32.30
2018-10-17T07:53:41.328Z,33.20
2018-10-17T07:56:10.849Z,32.97
2018-10-17T07:58:39.395Z,31.50
2018-10-17T08:01:07.923Z,33.47
2018-10-17T08:03:36.490Z,32.43
2018-10-17T08:06:05.768Z,31.10
2018-10-17T08:08:34.339Z,31.20
2018-10-17T08:11:03.480Z,32.10
2018-10-17T08:13:32.112Z,32.07
2018-10-17T08:16:00.709Z,33.40
2018-10-17T08:18:30.020Z,32.70
2018-10-17T08:20:58.553Z,32.10
2018-10-17T08:23:27.109Z,33.10
2018-10-17T08:25:55.616Z,33.27
2018-10-17T08:28:24.204Z,35.60
2018-10-17T08:30:52.808Z,33.50
2018-10-17T08:33:22.361Z,32.97
2018-10-17T08:35:51.025Z,32.53
2018-10-17T08:38:19.486Z,34.50
2018-10-17T08:40:48.091Z,37.00
2018-10-17T08:43:16.681Z,35.03
2018-10-17T08:45:45.258Z,35.60
2018-10-17T08:48:13.754Z,38.10
2018-10-17T08:50:43.267Z,39.53
2018-10-17T08:53:11.809Z,38.20
2018-10-17T08:55:40.402Z,36.97
2018-10-17T08:58:09.041Z,39.20
2018-10-17T09:00:37.574Z,38.87
2018-10-17T09:03:06.259Z,38.80
2018-10-17T09:05:35.455Z,37.23
2018-10-17T09:08:05.575Z,37.27
2018-10-17T09:10:34.059Z,38.90
2018-10-17T09:13:02.641Z,39.77
2018-10-17T09:15:31.179Z,36.20
2018-10-17T09:17:59.723Z,38.23
2018-10-17T09:20:28.287Z,38.40
2018-10-17T09:22:56.810Z,40.40
2018-10-17T09:25:25.463Z,39.60
2018-10-17T09:27:54.123Z,41.80
2018-10-17T09:30:22.766Z,40.50
2018-10-17T09:32:51.285Z,42.03
2018-10-17T09:35:20.019Z,43.17
2018-10-17T09:37:48.479Z,41.73
2018-10-17T09:40:17.083Z,41.70
2018-10-17T09:42:45.715Z,41.03
2018-10-17T09:45:14.274Z,41.60
2018-10-17T09:47:49.289Z,40.17
2018-10-17T09:50:17.826Z,43.70
2018-10-17T09:52:46.336Z,40.70
2018-10-17T09:55:14.939Z,42.33
2018-10-17T09:57:43.446Z,41.57
2018-10-17T10:00:17.093Z,42.90
2018-10-17T10:02:45.575Z,41.60
2018-10-17T10:05:14.201Z,41.60
2018-10-17T10:07:42.742Z,40.70
2018-10-17T10:10:11.361Z,39.67
2018-10-17T10:12:39.911Z,39.17
2018-10-17T10:15:08.694Z,41.00
2018-10-17T10:17:37.340Z,42.53
2018-10-17T10:20:05.915Z,41.47
2018-10-17T10:22:34.492Z,39.87
2018-10-17T10:25:03.368Z,42.23
2018-10-17T10:27:31.952Z,40.03
2018-10-17T10:30:00.510Z,42.43
2018-10-17T10:32:29.039Z,40.80
2018-10-17T10:34:57.601Z,40.00
2018-10-17T10:37:26.097Z,39.30
2018-10-17T10:39:54.676Z,39.30
2018-10-17T10:42:23.207Z,37.27
2018-10-17T10:44:51.768Z,36.70
2018-10-17T10:47:20.265Z,37.77
2018-10-17T10:49:48.790Z,39.33
2018-10-17T10:52:17.289Z,37.73
2018-10-17T10:54:45.794Z,36.23
2018-10-17T10:57:14.373Z,37.30
2018-10-17T10:59:43.027Z,37.00
2018-10-17T11:02:11.579Z,38.40
2018-10-17T11:04:40.235Z,36.73
2018-10-17T11:07:08.821Z,36.00
2018-10-17T11:09:37.321Z,38.13
2018-10-17T11:12:06.028Z,37.67
2018-10-17T11:14:34.706Z,37.77
2018-10-17T11:17:03.131Z,36.00
2018-10-17T11:19:31.631Z,40.07
2018-10-17T11:22:00.344Z,41.90
2018-10-17T11:24:28.791Z,38.30
2018-10-17T11:26:57.344Z,40.93
2018-10-17T11:29:25.917Z,40.00
2018-10-17T11:31:54.425Z,38.63
2018-10-17T11:34:22.975Z,40.80
2018-10-17T11:36:51.558Z,40.90
2018-10-17T11:39:20.081Z,39.93
2018-10-17T11:41:48.542Z,37.17
2018-10-17T11:44:17.119Z,38.80
2018-10-17T11:46:45.605Z,39.40
2018-10-17T11:49:14.094Z,39.30
2018-10-17T11:51:42.637Z,36.47
2018-10-17T11:54:11.175Z,40.33
2018-10-17T11:56:39.735Z,40.13
2018-10-17T11:59:08.287Z,39.80
2018-10-17T12:01:36.807Z,39.27
2018-10-17T12:04:05.580Z,37.33
2018-10-17T12:06:33.907Z,40.37
2018-10-17T12:09:02.527Z,39.80
2018-10-17T12:11:31.161Z,39.77
2018-10-17T12:13:59.578Z,38.73
2018-10-17T12:16:28.245Z,40.10
2018-10-17T12:18:56.898Z,41.50
2018-10-17T12:21:25.526Z,39.53
2018-10-17T12:23:54.192Z,38.93
2018-10-17T12:26:22.721Z,36.73
2018-10-17T12:28:51.327Z,36.80
2018-10-17T12:31:19.821Z,37.43
2018-10-17T12:33:48.380Z,37.07
2018-10-17T12:36:16.926Z,34.67
2018-10-17T12:38:45.462Z,36.33
2018-10-17T12:41:14.026Z,34.80
2018-10-17T12:43:42.559Z,37.63
2018-10-17T12:46:11.029Z,37.00
2018-10-17T12:48:39.567Z,37.13
2018-10-17T12:51:08.115Z,39.17
2018-10-17T12:53:36.653Z,39.97
2018-10-17T12:56:05.505Z,37.63
2018-10-17T12:58:33.949Z,37.40
2018-10-17T13:01:02.674Z,38.30
2018-10-17T13:03:31.227Z,33.97
2018-10-17T13:05:59.797Z,37.30
2018-10-17T13:08:28.371Z,34.20
2018-10-17T13:10:58.080Z,33.57
2018-10-17T13:13:26.648Z,32.20
2018-10-17T13:15:55.210Z,32.70
2018-10-17T13:18:23.874Z,31.37
2018-10-17T13:20:52.362Z,34.67
2018-10-17T13:23:21.023Z,32.17
2018-10-17T13:25:49.599Z,32.60
2018-10-17T13:28:18.202Z,32.70
2018-10-17T13:30:46.759Z,31.03
2018-10-17T13:33:15.378Z,30.93
2018-10-17T13:35:43.979Z,29.90
2018-10-17T13:38:12.578Z,29.80
2018-10-17T13:40:41.078Z,30.60
2018-10-17T13:43:09.850Z,29.07
2018-10-17T13:45:38.352Z,30.07
2018-10-17T13:48:06.845Z,28.47
2018-10-17T13:50:35.378Z,30.80
2018-10-17T13:53:03.980Z,29.40
2018-10-17T13:55:32.547Z,27.30
2018-10-17T13:58:01.335Z,29.53
2018-10-17T14:00:29.866Z,27.17
2018-10-17T14:02:58.576Z,29.07
2018-10-17T14:05:27.263Z,27.87
2018-10-17T14:07:55.968Z,28.23
2018-10-17T14:10:24.506Z,28.80
2018-10-17T14:12:53.261Z,26.40
2018-10-17T14:15:21.922Z,26.50
2018-10-17T14:17:50.507Z,28.50
2018-10-17T14:20:19.020Z,27.40
2018-10-17T14:22:47.745Z,29.43
2018-10-17T14:25:16.220Z,27.03
2018-10-17T14:27:44.851Z,25.77
2018-10-17T14:30:13.499Z,27.80
2018-10-17T14:32:42.065Z,26.97
2018-10-17T14:35:11.946Z,25.80
2018-10-17T14:37:40.526Z,26.43
2018-10-17T14:40:09.886Z,24.37
2018-10-17T14:42:38.578Z,26.33
2018-10-17T14:45:08.621Z,23.87
2018-10-17T14:47:37.097Z,23.80
2018-10-17T14:50:05.684Z,25.33
2018-10-17T14:52:34.245Z,25.10
2018-10-17T14:55:02.737Z,25.53
2018-10-17T14:57:31.407Z,24.90
2018-10-17T14:59:59.949Z,24.23
2018-10-17T15:02:28.476Z,24.97
2018-10-17T15:04:57.105Z,25.70
2018-10-17T15:07:25.695Z,24.10
2018-10-17T15:09:54.258Z,23.10
2018-10-17T15:12:22.753Z,22.97
2018-10-17T15:14:51.323Z,22.37
2018-10-17T15:17:19.917Z,22.80
2018-10-17T15:19:48.443Z,22.70
2018-10-17T15:22:17.074Z,22.60
2018-10-17T15:24:45.705Z,21.33
2018-10-17T15:27:14.576Z,21.87
2018-10-17T15:29:43.833Z,22.10
2018-10-17T15:32:12.365Z,21.70
2018-10-17T15:34:40.907Z,21.73
2018-10-17T15:37:10.311Z,23.00
2018-10-17T15:39:38.818Z,21.00
2018-10-17T15:42:07.525Z,16.60
2018-10-17T15:44:36.080Z,14.10
2018-10-17T15:47:04.829Z,13.60
2018-10-17T15:49:33.436Z,14.03
2018-10-17T15:52:01.995Z,13.20
2018-10-17T15:54:30.554Z,13.07
2018-10-17T15:56:59.196Z,13.60
2018-10-17T15:59:27.802Z,13.17
2018-10-17T16:01:56.405Z,12.77
2018-10-17T16:04:24.948Z,12.40
2018-10-17T16:06:53.663Z,13.67
2018-10-17T16:09:22.365Z,12.90
2018-10-17T16:11:50.862Z,13.20
2018-10-17T16:14:19.684Z,13.97
2018-10-17T16:16:48.255Z,12.70
2018-10-17T16:19:16.826Z,12.57
2018-10-17T16:21:45.349Z,11.20
2018-10-17T16:24:14.667Z,11.33
2018-10-17T16:26:43.157Z,11.63
2018-10-17T16:29:11.669Z,10.97
2018-10-17T16:31:40.357Z,10.60
2018-10-17T16:34:08.962Z,11.33
2018-10-17T16:36:37.568Z,9.57
2018-10-17T16:39:08.673Z,11.57
2018-10-17T16:41:37.285Z,10.20
2018-10-17T16:44:05.911Z,9.80
2018-10-17T16:46:34.637Z,10.87
2018-10-17T16:49:03.274Z,10.10
2018-10-17T16:51:31.933Z,11.00
2018-10-17T16:54:00.545Z,10.80
2018-10-17T16:56:29.129Z,12.50
2018-10-17T16:59:04.113Z,11.70
2018-10-17T17:01:32.693Z,12.53
2018-10-17T17:04:01.320Z,13.23
2018-10-17T17:06:29.932Z,12.47
2018-10-17T17:08:58.517Z,12.70
2018-10-17T17:11:26.989Z,12.47
2018-10-17T17:13:55.577Z,13.53
2018-10-17T17:16:24.110Z,13.47
2018-10-17T17:18:52.975Z,12.70
2018-10-17T17:21:21.870Z,12.10
2018-10-17T17:23:50.578Z,12.83
2018-10-17T17:26:19.374Z,12.60
2018-10-17T17:28:48.039Z,12.60
2018-10-17T17:31:16.936Z,12.83
2018-10-17T17:33:45.641Z,13.10
2018-10-17T17:36:14.197Z,12.30
2018-10-17T17:38:42.765Z,13.07
2018-10-17T17:41:11.647Z,12.70
2018-10-17T17:43:40.250Z,11.77
2018-10-17T17:46:08.795Z,12.90
2018-10-17T17:48:37.692Z,12.53
2018-10-17T17:51:06.407Z,14.10
2018-10-17T17:53:35.134Z,11.87
2018-10-17T17:56:03.750Z,13.17
2018-10-17T17:58:32.934Z,14.67
2018-10-17T18:01:01.677Z,14.03
2018-10-17T18:03:30.469Z,13.60
2018-10-17T18:05:59.216Z,12.60
2018-10-17T18:08:28.551Z,12.30
2018-10-17T18:10:57.048Z,14.00
2018-10-17T18:13:25.789Z,13.33
2018-10-17T18:15:54.508Z,13.43
2018-10-17T18:18:23.148Z,11.80
2018-10-17T18:20:51.937Z,13.47
2018-10-17T18:23:20.562Z,13.27
2018-10-17T18:25:49.370Z,11.77
2018-10-17T18:28:18.298Z,13.20
2018-10-17T18:30:47.193Z,13.10
2018-10-17T18:33:15.766Z,14.23
2018-10-17T18:35:44.259Z,12.93
2018-10-17T18:38:12.889Z,12.83
2018-10-17T18:40:41.474Z,13.13
2018-10-17T18:43:10.029Z,15.90
2018-10-17T18:45:38.682Z,13.13
2018-10-17T18:48:08.068Z,13.10
2018-10-17T18:50:36.763Z,12.40
2018-10-17T18:53:05.490Z,12.37
2018-10-17T18:55:34.379Z,12.80
2018-10-17T18:58:03.361Z,12.73
2018-10-17T19:00:31.917Z,13.37
2018-10-17T19:03:00.621Z,13.33
2018-10-17T19:05:29.521Z,12.80
2018-10-17T19:07:58.114Z,12.30
2018-10-17T19:10:26.741Z,12.33
2018-10-17T19:12:55.506Z,12.07
2018-10-17T19:15:24.286Z,11.53
2018-10-17T19:17:52.974Z,12.30
2018-10-17T19:20:21.881Z,12.53
2018-10-17T19:22:50.521Z,13.93
2018-10-17T19:25:19.171Z,13.50
2018-10-17T19:27:47.754Z,12.90
2018-10-17T19:30:16.464Z,13.63
2018-10-17T19:32:44.945Z,10.90
2018-10-17T19:35:13.442Z,12.87
2018-10-17T19:37:41.958Z,13.40
2018-10-17T19:40:11.219Z,13.00
2018-10-17T19:42:39.682Z,13.70
2018-10-17T19:45:09.295Z,15.07
2018-10-17T19:47:37.825Z,14.80
2018-10-17T19:50:06.858Z,13.50
2018-10-17T19:52:35.445Z,15.57
2018-10-17T19:55:04.014Z,15.43
2018-10-17T19:57:32.538Z,15.10
2018-10-17T20:00:01.066Z,14.70
2018-10-17T20:02:29.549Z,16.07
2018-10-17T20:04:58.113Z,15.27
2018-10-17T20:07:26.623Z,15.07
2018-10-17T20:09:55.210Z,15.70
2018-10-17T20:12:23.707Z,15.77
2018-10-17T20:14:52.218Z,14.67
2018-10-17T20:17:20.836Z,15.57
2018-10-17T20:19:49.329Z,17.20
2018-10-17T20:22:17.840Z,16.63
2018-10-17T20:24:46.457Z,16.90
2018-10-17T20:27:15.173Z,16.80
2018-10-17T20:29:43.609Z,16.90
2018-10-17T20:32:12.151Z,18.53
2018-10-17T20:34:40.728Z,16.70
2018-10-17T20:37:09.314Z,18.40
2018-10-17T20:39:37.897Z,17.00
2018-10-17T20:42:06.736Z,17.03
2018-10-17T20:44:35.288Z,17.93
2018-10-17T20:47:03.984Z,16.90
2018-10-17T20:49:32.447Z,17.63
2018-10-17T20:52:00.941Z,17.17
2018-10-17T20:54:29.433Z,16.50
2018-10-17T20:56:58.040Z,17.30
2018-10-17T20:59:26.567Z,17.73
2018-10-17T21:01:55.149Z,18.60
2018-10-17T21:04:23.729Z,17.23
2018-10-17T21:06:52.264Z,16.57
2018-10-17T21:09:20.782Z,18.07
2018-10-17T21:11:49.370Z,17.30
2018-10-17T21:14:17.918Z,15.87
2018-10-17T21:16:46.389Z,15.63
2018-10-17T21:19:14.890Z,18.00
2018-10-17T21:21:43.452Z,16.53
2018-10-17T21:24:11.972Z,16.53
2018-10-17T21:26:40.546Z,16.53
2018-10-17T21:29:09.095Z,15.37
2018-10-17T21:31:37.577Z,16.87
2018-10-17T21:34:06.133Z,17.27
2018-10-17T21:36:34.722Z,16.20
2018-10-17T21:39:03.951Z,15.40
2018-10-17T21:41:33.079Z,16.33
2018-10-17T21:44:02.283Z,16.70
2018-10-17T21:46:31.397Z,16.80
2018-10-17T21:49:00.160Z,14.80
2018-10-17T21:51:28.895Z,14.57
2018-10-17T21:53:57.475Z,14.70
2018-10-17T21:56:26.091Z,15.03
2018-10-17T21:58:54.662Z,15.00
2018-10-17T22:01:23.244Z,14.10
2018-10-17T22:03:51.836Z,13.13
2018-10-17T22:06:20.408Z,13.37
2018-10-17T22:08:49.067Z,14.00
2018-10-17T22:11:17.629Z,13.77
2018-10-17T22:13:46.231Z,13.60
2018-10-17T22:16:14.823Z,13.83
2018-10-17T22:18:43.434Z,12.57
2018-10-17T22:21:12.017Z,14.10
2018-10-17T22:23:40.622Z,12.53
2018-10-17T22:26:09.502Z,12.63
2018-10-17T22:28:38.059Z,12.80
2018-10-17T22:31:06.670Z,12.53
2018-10-17T22:33:35.299Z,12.70
2018-10-17T22:36:03.897Z,11.70
2018-10-17T22:38:32.511Z,11.57
2018-10-17T22:41:01.158Z,11.00
2018-10-17T22:43:29.713Z,12.20
2018-10-17T22:45:58.329Z,11.40
2018-10-17T22:48:26.885Z,9.50
2018-10-17T22:50:55.476Z,10.97
2018-10-17T22:53:24.079Z,10.30
2018-10-17T22:55:52.684Z,11.00
2018-10-17T22:58:21.278Z,12.20
2018-10-17T23:00:50.051Z,10.87
2018-10-17T23:03:18.835Z,11.03
2018-10-17T23:05:47.477Z,11.23
2018-10-17T23:08:16.244Z,12.27
2018-10-17T23:10:44.792Z,10.83
2018-10-17T23:13:13.420Z,11.13
2018-10-17T23:15:42.016Z,9.83
2018-10-17T23:18:10.646Z,10.93
2018-10-17T23:20:39.202Z,11.00
2018-10-17T23:23:07.841Z,11.13
2018-10-17T23:25:36.407Z,10.97
2018-10-17T23:28:05.199Z,11.60
2018-10-17T23:30:33.802Z,10.90
2018-10-17T23:33:02.377Z,11.50
2018-10-17T23:35:30.892Z,9.80
2018-10-17T23:37:59.580Z,10.80
2018-10-17T23:40:28.112Z,10.67
2018-10-17T23:42:56.722Z,10.70
2018-10-17T23:45:26.035Z,9.73
2018-10-17T23:47:55.324Z,11.33
2018-10-17T23:50:23.964Z,10.37
2018-10-17T23:52:52.470Z,9.53
2018-10-17T23:55:20.949Z,10.17
2018-10-17T23:57:52.510Z,9.87
